sensor_id;sensor_type;location;lat;lon;timestamp;P1;durP1;ratioP1;P2;durP2;ratioP2
14592;SDS011;7383;52.354;9.756;2023-10-31T00:01:11;1.05;;;1.05;;
14592;SDS011;7383;52.354;9.756;2023-10-31T00:03:37;1.40;;;1.30;;
14592;SDS011;7383;52.354;9.756;2023-10-31T00:06:07;1.25;;;1.20;;
14592;SDS011;7383;52.354;9.756;2023-10-31T00:08:34;1.50;;;1.35;;
14592;SDS011;7383;52.354;9.756;2023-10-31T00:11:02;1.50;;;1.40;;
14592;SDS011;7383;52.354;9.756;2023-10-31T00:13:29;1.70;;;1.60;;
14592;SDS011;7383;52.354;9.756;2023-10-31T00:15:56;1.77;;;1.50;;
14592;SDS011;7383;52.354;9.756;2023-10-31T00:18:23;1.70;;;1.60;;
14592;SDS011;7383;52.354;9.756;2023-10-31T00:20:50;1.88;;;1.25;;
14592;SDS011;7383;52.354;9.756;2023-10-31T00:23:17;1.77;;;1.48;;
14592;SDS011;7383;52.354;9.756;2023-10-31T00:25:44;1.08;;;1.08;;
14592;SDS011;7383;52.354;9.756;2023-10-31T00:28:12;1.60;;;1.50;;
14592;SDS011;7383;52.354;9.756;2023-10-31T00:30:39;1.50;;;1.45;;
14592;SDS011;7383;52.354;9.756;2023-10-31T00:33:05;1.50;;;1.40;;
14592;SDS011;7383;52.354;9.756;2023-10-31T00:35:32;1.83;;;1.73;;
14592;SDS011;7383;52.354;9.756;2023-10-31T00:37:59;1.67;;;1.58;;
14592;SDS011;7383;52.354;9.756;2023-10-31T00:40:27;1.30;;;1.20;;
14592;SDS011;7383;52.354;9.756;2023-10-31T00:42:53;1.35;;;1.25;;
14592;SDS011;7383;52.354;9.756;2023-10-31T00:45:23;1.45;;;1.35;;
14592;SDS011;7383;52.354;9.756;2023-10-31T00:47:59;1.55;;;1.45;;
14592;SDS011;7383;52.354;9.756;2023-10-31T00:50:27;1.63;;;1.52;;
14592;SDS011;7383;52.354;9.756;2023-10-31T00:52:54;1.17;;;1.17;;
14592;SDS011;7383;52.354;9.756;2023-10-31T00:55:21;1.60;;;1.50;;
14592;SDS011;7383;52.354;9.756;2023-10-31T00:57:48;1.33;;;1.30;;
14592;SDS011;7383;52.354;9.756;2023-10-31T01:00:14;1.75;;;1.30;;
14592;SDS011;7383;52.354;9.756;2023-10-31T01:02:43;1.63;;;1.52;;
14592;SDS011;7383;52.354;9.756;2023-10-31T01:05:10;1.70;;;1.60;;
14592;SDS011;7383;52.354;9.756;2023-10-31T01:07:37;1.45;;;1.35;;
14592;SDS011;7383;52.354;9.756;2023-10-31T01:10:04;1.40;;;1.40;;
14592;SDS011;7383;52.354;9.756;2023-10-31T01:12:32;1.85;;;1.75;;
14592;SDS011;7383;52.354;9.756;2023-10-31T01:14:59;1.58;;;1.35;;
14592;SDS011;7383;52.354;9.756;2023-10-31T01:17:26;1.52;;;1.45;;
14592;SDS011;7383;52.354;9.756;2023-10-31T01:19:54;1.63;;;1.52;;
14592;SDS011;7383;52.354;9.756;2023-10-31T01:22:21;1.80;;;1.70;;
14592;SDS011;7383;52.354;9.756;2023-10-31T01:24:48;1.52;;;1.45;;
14592;SDS011;7383;52.354;9.756;2023-10-31T01:27:14;1.48;;;1.45;;
14592;SDS011;7383;52.354;9.756;2023-10-31T01:29:41;1.42;;;1.35;;
14592;SDS011;7383;52.354;9.756;2023-10-31T01:32:07;1.90;;;1.80;;
14592;SDS011;7383;52.354;9.756;2023-10-31T01:34:34;1.77;;;1.67;;
14592;SDS011;7383;52.354;9.756;2023-10-31T01:37:03;2.10;;;1.90;;
14592;SDS011;7383;52.354;9.756;2023-10-31T01:39:30;1.83;;;1.73;;
14592;SDS011;7383;52.354;9.756;2023-10-31T01:41:57;1.90;;;1.80;;
14592;SDS011;7383;52.354;9.756;2023-10-31T01:44:23;1.90;;;1.80;;
14592;SDS011;7383;52.354;9.756;2023-10-31T01:46:50;1.73;;;1.63;;
14592;SDS011;7383;52.354;9.756;2023-10-31T01:49:16;2.42;;;1.60;;
14592;SDS011;7383;52.354;9.756;2023-10-31T01:51:44;2.00;;;1.70;;
14592;SDS011;7383;52.354;9.756;2023-10-31T01:54:13;1.90;;;1.80;;
14592;SDS011;7383;52.354;9.756;2023-10-31T01:56:40;1.90;;;1.80;;
14592;SDS011;7383;52.354;9.756;2023-10-31T01:59:07;1.90;;;1.80;;
14592;SDS011;7383;52.354;9.756;2023-10-31T02:01:34;1.88;;;1.77;;
14592;SDS011;7383;52.354;9.756;2023-10-31T02:04:04;1.80;;;1.70;;
14592;SDS011;7383;52.354;9.756;2023-10-31T02:06:31;1.90;;;1.80;;
14592;SDS011;7383;52.354;9.756;2023-10-31T02:08:57;2.00;;;1.90;;
14592;SDS011;7383;52.354;9.756;2023-10-31T02:11:25;2.08;;;1.98;;
14592;SDS011;7383;52.354;9.756;2023-10-31T02:13:52;1.65;;;1.50;;
14592;SDS011;7383;52.354;9.756;2023-10-31T02:16:19;1.83;;;1.65;;
14592;SDS011;7383;52.354;9.756;2023-10-31T02:18:45;1.80;;;1.70;;
14592;SDS011;7383;52.354;9.756;2023-10-31T02:21:12;1.58;;;1.48;;
14592;SDS011;7383;52.354;9.756;2023-10-31T02:23:40;1.88;;;1.77;;
14592;SDS011;7383;52.354;9.756;2023-10-31T02:26:07;1.90;;;1.80;;
14592;SDS011;7383;52.354;9.756;2023-10-31T02:28:34;2.00;;;1.90;;
14592;SDS011;7383;52.354;9.756;2023-10-31T02:31:01;1.90;;;1.80;;
14592;SDS011;7383;52.354;9.756;2023-10-31T02:33:28;2.00;;;1.90;;
14592;SDS011;7383;52.354;9.756;2023-10-31T02:35:57;2.67;;;1.90;;
14592;SDS011;7383;52.354;9.756;2023-10-31T02:38:24;1.95;;;1.75;;
14592;SDS011;7383;52.354;9.756;2023-10-31T02:40:52;1.90;;;1.80;;
14592;SDS011;7383;52.354;9.756;2023-10-31T02:43:18;1.83;;;1.73;;
14592;SDS011;7383;52.354;9.756;2023-10-31T02:45:45;1.75;;;1.65;;
14592;SDS011;7383;52.354;9.756;2023-10-31T02:48:11;1.77;;;1.67;;
14592;SDS011;7383;52.354;9.756;2023-10-31T02:50:38;1.65;;;1.55;;
14592;SDS011;7383;52.354;9.756;2023-10-31T02:53:04;1.70;;;1.60;;
14592;SDS011;7383;52.354;9.756;2023-10-31T02:55:31;1.63;;;1.52;;
14592;SDS011;7383;52.354;9.756;2023-10-31T02:57:59;1.55;;;1.48;;
14592;SDS011;7383;52.354;9.756;2023-10-31T03:00:26;1.70;;;1.60;;
14592;SDS011;7383;52.354;9.756;2023-10-31T03:02:52;1.67;;;1.58;;
14592;SDS011;7383;52.354;9.756;2023-10-31T03:05:22;1.40;;;1.40;;
14592;SDS011;7383;52.354;9.756;2023-10-31T03:07:49;1.20;;;1.20;;
14592;SDS011;7383;52.354;9.756;2023-10-31T03:10:15;1.40;;;1.30;;
14592;SDS011;7383;52.354;9.756;2023-10-31T03:12:42;1.48;;;1.38;;
14592;SDS011;7383;52.354;9.756;2023-10-31T03:15:11;1.30;;;1.20;;
14592;SDS011;7383;52.354;9.756;2023-10-31T03:17:37;3.80;;;1.42;;
14592;SDS011;7383;52.354;9.756;2023-10-31T03:20:04;1.00;;;1.00;;
14592;SDS011;7383;52.354;9.756;2023-10-31T03:22:32;1.50;;;1.40;;
14592;SDS011;7383;52.354;9.756;2023-10-31T03:24:58;1.55;;;1.48;;
14592;SDS011;7383;52.354;9.756;2023-10-31T03:27:26;1.13;;;1.13;;
14592;SDS011;7383;52.354;9.756;2023-10-31T03:29:53;1.25;;;1.25;;
14592;SDS011;7383;52.354;9.756;2023-10-31T03:32:22;1.88;;;1.60;;
14592;SDS011;7383;52.354;9.756;2023-10-31T03:34:49;1.40;;;1.40;;
14592;SDS011;7383;52.354;9.756;2023-10-31T03:37:15;1.30;;;1.30;;
14592;SDS011;7383;52.354;9.756;2023-10-31T03:39:42;1.95;;;1.85;;
14592;SDS011;7383;52.354;9.756;2023-10-31T03:42:09;1.60;;;1.60;;
14592;SDS011;7383;52.354;9.756;2023-10-31T03:44:39;2.03;;;1.92;;
14592;SDS011;7383;52.354;9.756;2023-10-31T03:47:05;2.10;;;2.00;;
14592;SDS011;7383;52.354;9.756;2023-10-31T03:49:37;1.92;;;1.83;;
14592;SDS011;7383;52.354;9.756;2023-10-31T03:52:03;1.80;;;1.80;;
14592;SDS011;7383;52.354;9.756;2023-10-31T03:54:32;1.85;;;1.77;;
14592;SDS011;7383;52.354;9.756;2023-10-31T03:56:59;1.92;;;1.88;;
14592;SDS011;7383;52.354;9.756;2023-10-31T03:59:25;2.00;;;1.90;;
14592;SDS011;7383;52.354;9.756;2023-10-31T04:01:52;1.90;;;1.80;;
14592;SDS011;7383;52.354;9.756;2023-10-31T04:04:18;2.00;;;1.90;;
14592;SDS011;7383;52.354;9.756;2023-10-31T04:06:48;2.10;;;2.00;;
14592;SDS011;7383;52.354;9.756;2023-10-31T04:09:14;2.10;;;2.00;;
14592;SDS011;7383;52.354;9.756;2023-10-31T04:11:41;1.70;;;1.60;;
14592;SDS011;7383;52.354;9.756;2023-10-31T04:14:08;1.45;;;1.45;;
14592;SDS011;7383;52.354;9.756;2023-10-31T04:16:38;1.35;;;1.33;;
14592;SDS011;7383;52.354;9.756;2023-10-31T04:19:05;1.10;;;1.10;;
14592;SDS011;7383;52.354;9.756;2023-10-31T04:21:32;1.08;;;1.08;;
14592;SDS011;7383;52.354;9.756;2023-10-31T04:24:00;0.98;;;0.98;;
14592;SDS011;7383;52.354;9.756;2023-10-31T04:26:26;0.98;;;0.98;;
14592;SDS011;7383;52.354;9.756;2023-10-31T04:31:45;1.13;;;0.82;;
14592;SDS011;7383;52.354;9.756;2023-10-31T04:34:12;0.90;;;0.90;;
14592;SDS011;7383;52.354;9.756;2023-10-31T04:36:38;1.55;;;0.88;;
14592;SDS011;7383;52.354;9.756;2023-10-31T04:39:06;0.60;;;0.60;;
14592;SDS011;7383;52.354;9.756;2023-10-31T04:41:33;0.60;;;0.60;;
14592;SDS011;7383;52.354;9.756;2023-10-31T04:44:00;0.40;;;0.40;;
14592;SDS011;7383;52.354;9.756;2023-10-31T04:46:27;0.45;;;0.40;;
14592;SDS011;7383;52.354;9.756;2023-10-31T04:48:56;0.30;;;0.30;;
14592;SDS011;7383;52.354;9.756;2023-10-31T04:51:22;0.20;;;0.20;;
14592;SDS011;7383;52.354;9.756;2023-10-31T04:53:49;0.32;;;0.28;;
14592;SDS011;7383;52.354;9.756;2023-10-31T04:56:17;0.20;;;0.20;;
14592;SDS011;7383;52.354;9.756;2023-10-31T04:58:46;0.52;;;0.08;;
14592;SDS011;7383;52.354;9.756;2023-10-31T05:01:13;0.10;;;0.10;;
14592;SDS011;7383;52.354;9.756;2023-10-31T05:03:40;0.03;;;0.00;;
14592;SDS011;7383;52.354;9.756;2023-10-31T05:06:08;1.13;;;0.20;;
14592;SDS011;7383;52.354;9.756;2023-10-31T05:08:36;0.10;;;0.10;;
14592;SDS011;7383;52.354;9.756;2023-10-31T05:11:03;0.00;;;0.00;;
14592;SDS011;7383;52.354;9.756;2023-10-31T05:13:31;0.10;;;0.10;;
14592;SDS011;7383;52.354;9.756;2023-10-31T05:15:58;0.15;;;0.10;;
14592;SDS011;7383;52.354;9.756;2023-10-31T05:18:25;0.68;;;0.15;;
14592;SDS011;7383;52.354;9.756;2023-10-31T05:20:52;1.02;;;0.17;;
14592;SDS011;7383;52.354;9.756;2023-10-31T05:23:18;0.35;;;0.15;;
14592;SDS011;7383;52.354;9.756;2023-10-31T05:25:44;0.10;;;0.10;;
14592;SDS011;7383;52.354;9.756;2023-10-31T05:28:11;0.88;;;0.20;;
14592;SDS011;7383;52.354;9.756;2023-10-31T05:30:42;0.10;;;0.10;;
14592;SDS011;7383;52.354;9.756;2023-10-31T05:33:09;0.10;;;0.10;;
14592;SDS011;7383;52.354;9.756;2023-10-31T05:35:39;0.20;;;0.20;;
14592;SDS011;7383;52.354;9.756;2023-10-31T05:38:05;0.65;;;0.20;;
14592;SDS011;7383;52.354;9.756;2023-10-31T05:40:32;0.10;;;0.10;;
14592;SDS011;7383;52.354;9.756;2023-10-31T05:43:00;0.17;;;0.17;;
14592;SDS011;7383;52.354;9.756;2023-10-31T05:45:27;0.17;;;0.17;;
14592;SDS011;7383;52.354;9.756;2023-10-31T05:47:55;0.10;;;0.10;;
14592;SDS011;7383;52.354;9.756;2023-10-31T05:50:22;0.30;;;0.20;;
14592;SDS011;7383;52.354;9.756;2023-10-31T05:52:49;0.50;;;0.20;;
14592;SDS011;7383;52.354;9.756;2023-10-31T05:55:15;0.43;;;0.30;;
14592;SDS011;7383;52.354;9.756;2023-10-31T05:57:42;0.98;;;0.25;;
14592;SDS011;7383;52.354;9.756;2023-10-31T06:00:09;0.40;;;0.30;;
14592;SDS011;7383;52.354;9.756;2023-10-31T06:02:36;0.30;;;0.30;;
14592;SDS011;7383;52.354;9.756;2023-10-31T06:05:04;0.50;;;0.43;;
14592;SDS011;7383;52.354;9.756;2023-10-31T06:07:32;0.30;;;0.20;;
14592;SDS011;7383;52.354;9.756;2023-10-31T06:09:58;0.77;;;0.40;;
14592;SDS011;7383;52.354;9.756;2023-10-31T06:12:25;0.30;;;0.30;;
14592;SDS011;7383;52.354;9.756;2023-10-31T06:14:53;0.85;;;0.40;;
14592;SDS011;7383;52.354;9.756;2023-10-31T06:17:19;0.63;;;0.55;;
14592;SDS011;7383;52.354;9.756;2023-10-31T06:19:46;0.43;;;0.43;;
14592;SDS011;7383;52.354;9.756;2023-10-31T06:22:14;0.50;;;0.50;;
14592;SDS011;7383;52.354;9.756;2023-10-31T06:24:41;0.63;;;0.40;;
14592;SDS011;7383;52.354;9.756;2023-10-31T06:27:08;0.60;;;0.60;;
14592;SDS011;7383;52.354;9.756;2023-10-31T06:29:34;0.90;;;0.90;;
14592;SDS011;7383;52.354;9.756;2023-10-31T06:32:01;2.30;;;0.80;;
14592;SDS011;7383;52.354;9.756;2023-10-31T06:34:27;0.75;;;0.75;;
14592;SDS011;7383;52.354;9.756;2023-10-31T06:36:54;1.38;;;0.88;;
14592;SDS011;7383;52.354;9.756;2023-10-31T06:39:22;1.00;;;0.95;;
14592;SDS011;7383;52.354;9.756;2023-10-31T06:41:48;1.63;;;1.00;;
14592;SDS011;7383;52.354;9.756;2023-10-31T06:44:15;1.25;;;1.15;;
14592;SDS011;7383;52.354;9.756;2023-10-31T06:46:42;1.38;;;1.05;;
14592;SDS011;7383;52.354;9.756;2023-10-31T06:49:08;1.38;;;1.08;;
14592;SDS011;7383;52.354;9.756;2023-10-31T06:51:35;1.25;;;1.15;;
14592;SDS011;7383;52.354;9.756;2023-10-31T06:54:01;0.88;;;0.88;;
14592;SDS011;7383;52.354;9.756;2023-10-31T06:56:29;1.45;;;1.23;;
14592;SDS011;7383;52.354;9.756;2023-10-31T06:58:56;1.15;;;1.10;;
14592;SDS011;7383;52.354;9.756;2023-10-31T07:01:23;1.13;;;1.02;;
14592;SDS011;7383;52.354;9.756;2023-10-31T07:03:49;1.20;;;1.10;;
14592;SDS011;7383;52.354;9.756;2023-10-31T07:06:16;1.15;;;1.05;;
14592;SDS011;7383;52.354;9.756;2023-10-31T07:08:43;1.23;;;0.90;;
14592;SDS011;7383;52.354;9.756;2023-10-31T07:11:09;0.80;;;0.80;;
14592;SDS011;7383;52.354;9.756;2023-10-31T07:13:37;0.82;;;0.82;;
14592;SDS011;7383;52.354;9.756;2023-10-31T07:16:04;0.90;;;0.90;;
14592;SDS011;7383;52.354;9.756;2023-10-31T07:18:31;0.80;;;0.80;;
14592;SDS011;7383;52.354;9.756;2023-10-31T07:20:58;0.68;;;0.68;;
14592;SDS011;7383;52.354;9.756;2023-10-31T07:23:24;1.00;;;0.95;;
14592;SDS011;7383;52.354;9.756;2023-10-31T07:25:51;0.73;;;0.73;;
14592;SDS011;7383;52.354;9.756;2023-10-31T07:28:18;1.27;;;0.88;;
14592;SDS011;7383;52.354;9.756;2023-10-31T07:30:46;0.82;;;0.82;;
14592;SDS011;7383;52.354;9.756;2023-10-31T07:33:14;0.80;;;0.80;;
14592;SDS011;7383;52.354;9.756;2023-10-31T07:35:41;0.80;;;0.80;;
14592;SDS011;7383;52.354;9.756;2023-10-31T07:38:08;1.15;;;0.90;;
14592;SDS011;7383;52.354;9.756;2023-10-31T07:40:37;0.70;;;0.70;;
14592;SDS011;7383;52.354;9.756;2023-10-31T07:43:03;0.80;;;0.80;;
14592;SDS011;7383;52.354;9.756;2023-10-31T07:45:30;0.60;;;0.60;;
14592;SDS011;7383;52.354;9.756;2023-10-31T07:47:58;0.80;;;0.70;;
14592;SDS011;7383;52.354;9.756;2023-10-31T07:50:24;0.80;;;0.80;;
14592;SDS011;7383;52.354;9.756;2023-10-31T07:52:51;0.93;;;0.93;;
14592;SDS011;7383;52.354;9.756;2023-10-31T07:55:18;0.93;;;0.63;;
14592;SDS011;7383;52.354;9.756;2023-10-31T07:57:44;0.88;;;0.77;;
14592;SDS011;7383;52.354;9.756;2023-10-31T08:00:11;0.60;;;0.60;;
14592;SDS011;7383;52.354;9.756;2023-10-31T08:02:39;0.60;;;0.60;;
14592;SDS011;7383;52.354;9.756;2023-10-31T08:05:07;0.50;;;0.50;;
14592;SDS011;7383;52.354;9.756;2023-10-31T08:07:34;0.65;;;0.50;;
14592;SDS011;7383;52.354;9.756;2023-10-31T08:10:01;0.57;;;0.57;;
14592;SDS011;7383;52.354;9.756;2023-10-31T08:12:28;0.68;;;0.68;;
14592;SDS011;7383;52.354;9.756;2023-10-31T08:14:55;0.57;;;0.55;;
14592;SDS011;7383;52.354;9.756;2023-10-31T08:17:23;0.30;;;0.30;;
14592;SDS011;7383;52.354;9.756;2023-10-31T08:19:50;1.10;;;0.55;;
14592;SDS011;7383;52.354;9.756;2023-10-31T08:22:17;0.77;;;0.43;;
14592;SDS011;7383;52.354;9.756;2023-10-31T08:24:43;0.43;;;0.43;;
14592;SDS011;7383;52.354;9.756;2023-10-31T08:27:12;0.60;;;0.60;;
14592;SDS011;7383;52.354;9.756;2023-10-31T08:29:39;0.45;;;0.45;;
14592;SDS011;7383;52.354;9.756;2023-10-31T08:32:06;0.47;;;0.47;;
14592;SDS011;7383;52.354;9.756;2023-10-31T08:34:32;0.60;;;0.60;;
14592;SDS011;7383;52.354;9.756;2023-10-31T08:36:59;0.50;;;0.50;;
14592;SDS011;7383;52.354;9.756;2023-10-31T08:39:29;0.45;;;0.45;;
14592;SDS011;7383;52.354;9.756;2023-10-31T08:41:56;0.52;;;0.47;;
14592;SDS011;7383;52.354;9.756;2023-10-31T08:44:24;0.60;;;0.60;;
14592;SDS011;7383;52.354;9.756;2023-10-31T08:46:51;1.02;;;0.70;;
14592;SDS011;7383;52.354;9.756;2023-10-31T08:49:18;0.63;;;0.57;;
14592;SDS011;7383;52.354;9.756;2023-10-31T08:51:45;0.47;;;0.47;;
14592;SDS011;7383;52.354;9.756;2023-10-31T08:54:14;0.63;;;0.63;;
14592;SDS011;7383;52.354;9.756;2023-10-31T08:56:42;0.43;;;0.43;;
14592;SDS011;7383;52.354;9.756;2023-10-31T08:59:09;0.63;;;0.63;;
14592;SDS011;7383;52.354;9.756;2023-10-31T09:01:36;0.50;;;0.50;;
14592;SDS011;7383;52.354;9.756;2023-10-31T09:04:02;0.52;;;0.52;;
14592;SDS011;7383;52.354;9.756;2023-10-31T09:06:29;0.40;;;0.40;;
14592;SDS011;7383;52.354;9.756;2023-10-31T09:08:56;0.70;;;0.63;;
14592;SDS011;7383;52.354;9.756;2023-10-31T09:11:23;0.63;;;0.50;;
14592;SDS011;7383;52.354;9.756;2023-10-31T09:13:51;0.45;;;0.45;;
14592;SDS011;7383;52.354;9.756;2023-10-31T09:16:17;0.40;;;0.40;;
14592;SDS011;7383;52.354;9.756;2023-10-31T09:18:44;0.93;;;0.47;;
14592;SDS011;7383;52.354;9.756;2023-10-31T09:21:12;0.60;;;0.60;;
14592;SDS011;7383;52.354;9.756;2023-10-31T09:23:38;0.50;;;0.50;;
14592;SDS011;7383;52.354;9.756;2023-10-31T09:26:05;0.70;;;0.63;;
14592;SDS011;7383;52.354;9.756;2023-10-31T09:28:31;0.30;;;0.30;;
14592;SDS011;7383;52.354;9.756;2023-10-31T09:31:00;0.40;;;0.40;;
14592;SDS011;7383;52.354;9.756;2023-10-31T09:33:27;0.30;;;0.30;;
14592;SDS011;7383;52.354;9.756;2023-10-31T09:35:54;0.50;;;0.50;;
14592;SDS011;7383;52.354;9.756;2023-10-31T09:38:20;0.32;;;0.30;;
14592;SDS011;7383;52.354;9.756;2023-10-31T09:40:47;0.57;;;0.40;;
14592;SDS011;7383;52.354;9.756;2023-10-31T09:43:14;0.32;;;0.32;;
14592;SDS011;7383;52.354;9.756;2023-10-31T09:45:41;0.38;;;0.30;;
14592;SDS011;7383;52.354;9.756;2023-10-31T09:48:09;0.50;;;0.40;;
14592;SDS011;7383;52.354;9.756;2023-10-31T09:50:36;0.35;;;0.28;;
14592;SDS011;7383;52.354;9.756;2023-10-31T09:53:03;0.30;;;0.30;;
14592;SDS011;7383;52.354;9.756;2023-10-31T09:55:32;0.20;;;0.20;;
14592;SDS011;7383;52.354;9.756;2023-10-31T09:57:59;0.82;;;0.40;;
14592;SDS011;7383;52.354;9.756;2023-10-31T10:00:26;0.30;;;0.30;;
14592;SDS011;7383;52.354;9.756;2023-10-31T10:02:52;0.22;;;0.20;;
14592;SDS011;7383;52.354;9.756;2023-10-31T10:05:22;0.28;;;0.28;;
14592;SDS011;7383;52.354;9.756;2023-10-31T10:07:49;0.20;;;0.20;;
14592;SDS011;7383;52.354;9.756;2023-10-31T10:10:16;0.40;;;0.30;;
14592;SDS011;7383;52.354;9.756;2023-10-31T10:12:43;0.40;;;0.20;;
14592;SDS011;7383;52.354;9.756;2023-10-31T10:15:11;0.75;;;0.20;;
14592;SDS011;7383;52.354;9.756;2023-10-31T10:17:38;0.55;;;0.20;;
14592;SDS011;7383;52.354;9.756;2023-10-31T10:20:05;0.20;;;0.20;;
14592;SDS011;7383;52.354;9.756;2023-10-31T10:22:37;0.45;;;0.17;;
14592;SDS011;7383;52.354;9.756;2023-10-31T10:25:04;0.52;;;0.52;;
14592;SDS011;7383;52.354;9.756;2023-10-31T10:27:32;0.20;;;0.10;;
14592;SDS011;7383;52.354;9.756;2023-10-31T10:29:59;0.20;;;0.20;;
14592;SDS011;7383;52.354;9.756;2023-10-31T10:32:26;0.65;;;0.20;;
14592;SDS011;7383;52.354;9.756;2023-10-31T10:34:53;0.77;;;0.32;;
14592;SDS011;7383;52.354;9.756;2023-10-31T10:37:20;0.40;;;0.40;;
14592;SDS011;7383;52.354;9.756;2023-10-31T10:39:50;0.38;;;0.38;;
14592;SDS011;7383;52.354;9.756;2023-10-31T10:42:21;0.55;;;0.30;;
14592;SDS011;7383;52.354;9.756;2023-10-31T10:44:58;0.73;;;0.45;;
14592;SDS011;7383;52.354;9.756;2023-10-31T10:47:34;0.50;;;0.40;;
14592;SDS011;7383;52.354;9.756;2023-10-31T10:50:03;0.32;;;0.30;;
14592;SDS011;7383;52.354;9.756;2023-10-31T10:52:35;0.40;;;0.40;;
14592;SDS011;7383;52.354;9.756;2023-10-31T10:55:08;0.73;;;0.30;;
14592;SDS011;7383;52.354;9.756;2023-10-31T10:57:42;0.93;;;0.47;;
14592;SDS011;7383;52.354;9.756;2023-10-31T11:00:14;0.32;;;0.32;;
14592;SDS011;7383;52.354;9.756;2023-10-31T11:02:41;0.30;;;0.30;;
14592;SDS011;7383;52.354;9.756;2023-10-31T11:05:10;0.50;;;0.50;;
14592;SDS011;7383;52.354;9.756;2023-10-31T11:07:40;0.70;;;0.25;;
14592;SDS011;7383;52.354;9.756;2023-10-31T11:10:09;0.40;;;0.40;;
14592;SDS011;7383;52.354;9.756;2023-10-31T11:12:37;0.63;;;0.28;;
14592;SDS011;7383;52.354;9.756;2023-10-31T11:15:05;0.75;;;0.50;;
14592;SDS011;7383;52.354;9.756;2023-10-31T11:17:33;0.50;;;0.50;;
14592;SDS011;7383;52.354;9.756;2023-10-31T11:20:02;0.75;;;0.63;;
14592;SDS011;7383;52.354;9.756;2023-10-31T11:22:36;0.90;;;0.40;;
14592;SDS011;7383;52.354;9.756;2023-10-31T11:25:06;0.60;;;0.60;;
14592;SDS011;7383;52.354;9.756;2023-10-31T11:27:35;0.73;;;0.52;;
14592;SDS011;7383;52.354;9.756;2023-10-31T11:30:04;0.50;;;0.50;;
14592;SDS011;7383;52.354;9.756;2023-10-31T11:32:32;0.60;;;0.50;;
14592;SDS011;7383;52.354;9.756;2023-10-31T11:34:59;0.52;;;0.47;;
14592;SDS011;7383;52.354;9.756;2023-10-31T11:37:27;0.60;;;0.60;;
14592;SDS011;7383;52.354;9.756;2023-10-31T11:42:51;0.88;;;0.88;;
14592;SDS011;7383;52.354;9.756;2023-10-31T11:45:30;0.60;;;0.60;;
14592;SDS011;7383;52.354;9.756;2023-10-31T11:47:59;1.17;;;0.70;;
14592;SDS011;7383;52.354;9.756;2023-10-31T11:50:29;0.75;;;0.75;;
14592;SDS011;7383;52.354;9.756;2023-10-31T11:53:02;0.70;;;0.70;;
14592;SDS011;7383;52.354;9.756;2023-10-31T11:55:39;0.60;;;0.60;;
14592;SDS011;7383;52.354;9.756;2023-10-31T11:58:18;0.75;;;0.73;;
14592;SDS011;7383;52.354;9.756;2023-10-31T12:00:45;0.40;;;0.40;;
14592;SDS011;7383;52.354;9.756;2023-10-31T12:03:14;0.47;;;0.47;;
14592;SDS011;7383;52.354;9.756;2023-10-31T12:05:50;0.68;;;0.60;;
14592;SDS011;7383;52.354;9.756;2023-10-31T12:08:23;0.90;;;0.70;;
14592;SDS011;7383;52.354;9.756;2023-10-31T12:10:53;0.70;;;0.70;;
14592;SDS011;7383;52.354;9.756;2023-10-31T12:13:21;0.50;;;0.50;;
14592;SDS011;7383;52.354;9.756;2023-10-31T12:15:51;0.50;;;0.43;;
14592;SDS011;7383;52.354;9.756;2023-10-31T12:18:18;0.75;;;0.75;;
14592;SDS011;7383;52.354;9.756;2023-10-31T12:20:50;0.63;;;0.63;;
14592;SDS011;7383;52.354;9.756;2023-10-31T12:23:17;0.70;;;0.70;;
14592;SDS011;7383;52.354;9.756;2023-10-31T12:25:50;1.05;;;0.90;;
14592;SDS011;7383;52.354;9.756;2023-10-31T12:28:22;0.98;;;0.98;;
14592;SDS011;7383;52.354;9.756;2023-10-31T12:31:14;1.05;;;1.05;;
14592;SDS011;7383;52.354;9.756;2023-10-31T12:33:42;1.00;;;0.80;;
14592;SDS011;7383;52.354;9.756;2023-10-31T13:17:12;1.55;;;1.30;;
14592;SDS011;7383;52.354;9.756;2023-10-31T13:19:57;1.20;;;1.20;;
14592;SDS011;7383;52.354;9.756;2023-10-31T13:22:45;1.10;;;1.10;;
14592;SDS011;7383;52.354;9.756;2023-10-31T13:25:48;1.38;;;1.27;;
14592;SDS011;7383;52.354;9.756;2023-10-31T13:31:11;1.70;;;1.45;;
14592;SDS011;7383;52.354;9.756;2023-10-31T13:33:42;2.00;;;1.88;;
14592;SDS011;7383;52.354;9.756;2023-10-31T13:36:11;1.60;;;1.50;;
14592;SDS011;7383;52.354;9.756;2023-10-31T13:38:50;2.88;;;1.73;;
14592;SDS011;7383;52.354;9.756;2023-10-31T13:41:51;1.70;;;1.60;;
14592;SDS011;7383;52.354;9.756;2023-10-31T13:44:19;1.60;;;1.50;;
14592;SDS011;7383;52.354;9.756;2023-10-31T13:46:47;1.70;;;1.60;;
14592;SDS011;7383;52.354;9.756;2023-10-31T13:49:14;1.70;;;1.60;;
14592;SDS011;7383;52.354;9.756;2023-10-31T13:51:41;1.60;;;1.50;;
14592;SDS011;7383;52.354;9.756;2023-10-31T13:54:07;3.63;;;1.30;;
14592;SDS011;7383;52.354;9.756;2023-10-31T13:56:36;1.58;;;1.48;;
14592;SDS011;7383;52.354;9.756;2023-10-31T13:59:02;1.40;;;1.30;;
14592;SDS011;7383;52.354;9.756;2023-10-31T14:01:35;1.52;;;1.42;;
14592;SDS011;7383;52.354;9.756;2023-10-31T14:07:20;1.65;;;1.55;;
14592;SDS011;7383;52.354;9.756;2023-10-31T14:09:56;2.25;;;1.63;;
14592;SDS011;7383;52.354;9.756;2023-10-31T14:12:32;1.88;;;1.77;;
14592;SDS011;7383;52.354;9.756;2023-10-31T14:15:25;1.73;;;1.63;;
14592;SDS011;7383;52.354;9.756;2023-10-31T14:18:13;1.90;;;1.80;;
14592;SDS011;7383;52.354;9.756;2023-10-31T14:20:57;1.70;;;1.60;;
14592;SDS011;7383;52.354;9.756;2023-10-31T14:23:45;1.75;;;1.65;;
14592;SDS011;7383;52.354;9.756;2023-10-31T14:26:19;2.55;;;2.25;;
14592;SDS011;7383;52.354;9.756;2023-10-31T14:31:44;2.08;;;1.98;;
14592;SDS011;7383;52.354;9.756;2023-10-31T14:34:10;2.13;;;2.03;;
14592;SDS011;7383;52.354;9.756;2023-10-31T14:36:37;2.45;;;2.25;;
14592;SDS011;7383;52.354;9.756;2023-10-31T14:39:05;3.30;;;2.60;;
14592;SDS011;7383;52.354;9.756;2023-10-31T14:41:31;2.58;;;2.38;;
14592;SDS011;7383;52.354;9.756;2023-10-31T14:43:59;2.30;;;2.17;;
14592;SDS011;7383;52.354;9.756;2023-10-31T14:46:27;2.63;;;2.47;;
14592;SDS011;7383;52.354;9.756;2023-10-31T14:48:54;2.45;;;2.35;;
14592;SDS011;7383;52.354;9.756;2023-10-31T14:51:20;2.47;;;2.38;;
14592;SDS011;7383;52.354;9.756;2023-10-31T14:53:47;2.47;;;2.38;;
14592;SDS011;7383;52.354;9.756;2023-10-31T14:56:15;2.97;;;2.65;;
14592;SDS011;7383;52.354;9.756;2023-10-31T14:58:42;3.05;;;2.60;;
14592;SDS011;7383;52.354;9.756;2023-10-31T15:01:08;2.53;;;2.33;;
14592;SDS011;7383;52.354;9.756;2023-10-31T15:03:35;2.33;;;2.20;;
14592;SDS011;7383;52.354;9.756;2023-10-31T15:06:01;2.80;;;2.60;;
14592;SDS011;7383;52.354;9.756;2023-10-31T15:08:28;2.45;;;2.25;;
14592;SDS011;7383;52.354;9.756;2023-10-31T15:10:55;2.05;;;1.95;;
14592;SDS011;7383;52.354;9.756;2023-10-31T15:13:23;2.33;;;2.13;;
14592;SDS011;7383;52.354;9.756;2023-10-31T15:15:49;1.40;;;1.40;;
14592;SDS011;7383;52.354;9.756;2023-10-31T15:18:16;1.65;;;1.55;;
14592;SDS011;7383;52.354;9.756;2023-10-31T15:20:45;1.38;;;1.35;;
14592;SDS011;7383;52.354;9.756;2023-10-31T15:23:12;1.30;;;1.20;;
14592;SDS011;7383;52.354;9.756;2023-10-31T15:25:39;1.02;;;1.02;;
14592;SDS011;7383;52.354;9.756;2023-10-31T15:28:06;0.77;;;0.77;;
14592;SDS011;7383;52.354;9.756;2023-10-31T15:30:34;0.68;;;0.65;;
14592;SDS011;7383;52.354;9.756;2023-10-31T15:33:01;1.42;;;0.75;;
14592;SDS011;7383;52.354;9.756;2023-10-31T15:35:27;0.60;;;0.60;;
14592;SDS011;7383;52.354;9.756;2023-10-31T15:37:53;0.60;;;0.60;;
14592;SDS011;7383;52.354;9.756;2023-10-31T15:40:20;0.40;;;0.40;;
14592;SDS011;7383;52.354;9.756;2023-10-31T15:42:46;0.85;;;0.57;;
14592;SDS011;7383;52.354;9.756;2023-10-31T15:45:13;0.80;;;0.80;;
14592;SDS011;7383;52.354;9.756;2023-10-31T15:47:41;0.47;;;0.47;;
14592;SDS011;7383;52.354;9.756;2023-10-31T15:50:08;0.60;;;0.60;;
14592;SDS011;7383;52.354;9.756;2023-10-31T15:52:35;0.75;;;0.60;;
14592;SDS011;7383;52.354;9.756;2023-10-31T15:55:02;0.68;;;0.60;;
14592;SDS011;7383;52.354;9.756;2023-10-31T15:57:29;0.40;;;0.40;;
14592;SDS011;7383;52.354;9.756;2023-10-31T15:59:55;0.60;;;0.60;;
14592;SDS011;7383;52.354;9.756;2023-10-31T16:02:22;0.60;;;0.60;;